Ashton, Maryland
Current Conditions -  °F | °C
As of 5:55 PM on Tuesday 21 Oct 2014 (Local Time) from KGAI Reporting Station
Overcast Overcast  
Wind Chill: 16°   Ceiling: 9000
Heat Index: 16°   Visibility: 10mi
Dew Point:   Wind: 10mph
Humidity: 59%   Direction: 290°WNW
Pressure: 29.88"   Gusts: NA
Location:  39.15°N, 77.01°W
Report Text: KGAI 212155Z 29009KT 10SM OVC090 16/08 A2988 RMK AO1
Loading
Personal Weather Stations






























Interactive Weather Map
Tropical Storm Tracking
New forecast layout! Learn more

10-Day Weather Forecast

Advertisements
Track Severe Weather on mobile